sensor_id;sensor_type;location;lat;lon;timestamp;P1;durP1;ratioP1;P2;durP2;ratioP2
34902;SDS011;21114;44.840;0.214;2024-02-21T00:03:07;16.88;;;10.73;;
34902;SDS011;21114;44.840;0.214;2024-02-21T00:05:33;17.13;;;12.50;;
34902;SDS011;21114;44.840;0.214;2024-02-21T00:07:59;18.20;;;12.98;;
34902;SDS011;21114;44.840;0.214;2024-02-21T00:10:25;22.20;;;15.32;;
34902;SDS011;21114;44.840;0.214;2024-02-21T00:12:51;23.20;;;14.38;;
34902;SDS011;21114;44.840;0.214;2024-02-21T00:15:17;19.38;;;13.02;;
34902;SDS011;21114;44.840;0.214;2024-02-21T00:17:44;21.23;;;13.02;;
34902;SDS011;21114;44.840;0.214;2024-02-21T00:20:10;18.08;;;12.38;;
34902;SDS011;21114;44.840;0.214;2024-02-21T00:23:26;14.63;;;10.02;;
34902;SDS011;21114;44.840;0.214;2024-02-21T00:25:53;15.27;;;11.10;;
34902;SDS011;21114;44.840;0.214;2024-02-21T00:28:19;14.80;;;11.15;;
34902;SDS011;21114;44.840;0.214;2024-02-21T00:30:46;19.70;;;11.18;;
34902;SDS011;21114;44.840;0.214;2024-02-21T00:33:13;11.88;;;10.38;;
34902;SDS011;21114;44.840;0.214;2024-02-21T00:35:40;16.48;;;10.30;;
34902;SDS011;21114;44.840;0.214;2024-02-21T00:38:06;14.20;;;9.30;;
34902;SDS011;21114;44.840;0.214;2024-02-21T00:40:32;16.25;;;10.50;;
34902;SDS011;21114;44.840;0.214;2024-02-21T00:42:58;15.00;;;11.70;;
34902;SDS011;21114;44.840;0.214;2024-02-21T00:45:24;16.50;;;10.02;;
34902;SDS011;21114;44.840;0.214;2024-02-21T00:47:50;14.68;;;10.07;;
34902;SDS011;21114;44.840;0.214;2024-02-21T00:50:16;17.27;;;11.45;;
34902;SDS011;21114;44.840;0.214;2024-02-21T00:52:42;20.10;;;13.30;;
34902;SDS011;21114;44.840;0.214;2024-02-21T00:55:08;13.48;;;10.30;;
34902;SDS011;21114;44.840;0.214;2024-02-21T00:57:34;16.60;;;11.02;;
34902;SDS011;21114;44.840;0.214;2024-02-21T01:00:01;12.57;;;9.85;;
34902;SDS011;21114;44.840;0.214;2024-02-21T01:03:16;14.52;;;11.50;;
34902;SDS011;21114;44.840;0.214;2024-02-21T01:05:42;15.07;;;11.40;;
34902;SDS011;21114;44.840;0.214;2024-02-21T01:08:08;12.27;;;11.02;;
34902;SDS011;21114;44.840;0.214;2024-02-21T01:10:34;17.02;;;11.40;;
34902;SDS011;21114;44.840;0.214;2024-02-21T01:13:00;14.23;;;10.77;;
34902;SDS011;21114;44.840;0.214;2024-02-21T01:15:26;15.20;;;10.77;;
34902;SDS011;21114;44.840;0.214;2024-02-21T01:17:53;13.43;;;9.90;;
34902;SDS011;21114;44.840;0.214;2024-02-21T01:20:20;16.10;;;10.55;;
34902;SDS011;21114;44.840;0.214;2024-02-21T01:23:35;15.82;;;11.25;;
34902;SDS011;21114;44.840;0.214;2024-02-21T01:26:01;16.95;;;11.93;;
34902;SDS011;21114;44.840;0.214;2024-02-21T01:28:27;15.65;;;10.35;;
34902;SDS011;21114;44.840;0.214;2024-02-21T01:30:53;11.48;;;8.65;;
34902;SDS011;21114;44.840;0.214;2024-02-21T01:33:20;15.00;;;9.00;;
34902;SDS011;21114;44.840;0.214;2024-02-21T01:35:46;12.90;;;9.65;;
34902;SDS011;21114;44.840;0.214;2024-02-21T01:38:15;13.82;;;9.48;;
34902;SDS011;21114;44.840;0.214;2024-02-21T01:41:03;11.40;;;8.85;;
34902;SDS011;21114;44.840;0.214;2024-02-21T01:44:17;14.88;;;8.35;;
34902;SDS011;21114;44.840;0.214;2024-02-21T01:46:43;12.68;;;9.02;;
34902;SDS011;21114;44.840;0.214;2024-02-21T01:49:09;17.55;;;10.05;;
34902;SDS011;21114;44.840;0.214;2024-02-21T01:51:36;10.65;;;9.32;;
34902;SDS011;21114;44.840;0.214;2024-02-21T01:54:50;11.93;;;9.43;;
34902;SDS011;21114;44.840;0.214;2024-02-21T01:57:17;20.95;;;11.90;;
34902;SDS011;21114;44.840;0.214;2024-02-21T01:59:43;11.85;;;8.73;;
34902;SDS011;21114;44.840;0.214;2024-02-21T02:02:10;14.63;;;9.80;;
34902;SDS011;21114;44.840;0.214;2024-02-21T02:04:37;11.65;;;9.05;;
34902;SDS011;21114;44.840;0.214;2024-02-21T02:07:52;14.93;;;8.93;;
34902;SDS011;21114;44.840;0.214;2024-02-21T02:10:18;14.27;;;9.00;;
34902;SDS011;21114;44.840;0.214;2024-02-21T02:12:44;10.07;;;8.10;;
34902;SDS011;21114;44.840;0.214;2024-02-21T02:15:10;16.33;;;9.65;;
34902;SDS011;21114;44.840;0.214;2024-02-21T02:17:36;12.75;;;8.15;;
34902;SDS011;21114;44.840;0.214;2024-02-21T02:20:02;15.10;;;7.90;;
34902;SDS011;21114;44.840;0.214;2024-02-21T02:22:29;14.95;;;8.38;;
34902;SDS011;21114;44.840;0.214;2024-02-21T02:25:46;11.93;;;9.35;;
34902;SDS011;21114;44.840;0.214;2024-02-21T02:29:01;11.02;;;7.72;;
34902;SDS011;21114;44.840;0.214;2024-02-21T02:32:17;11.90;;;8.27;;
34902;SDS011;21114;44.840;0.214;2024-02-21T02:34:43;14.35;;;7.97;;
34902;SDS011;21114;44.840;0.214;2024-02-21T02:37:09;12.73;;;7.70;;
34902;SDS011;21114;44.840;0.214;2024-02-21T02:39:35;11.57;;;7.53;;
34902;SDS011;21114;44.840;0.214;2024-02-21T02:42:01;10.68;;;6.90;;
34902;SDS011;21114;44.840;0.214;2024-02-21T02:44:27;14.27;;;7.68;;
34902;SDS011;21114;44.840;0.214;2024-02-21T02:46:54;12.85;;;7.28;;
34902;SDS011;21114;44.840;0.214;2024-02-21T02:49:20;8.02;;;6.50;;
34902;SDS011;21114;44.840;0.214;2024-02-21T02:51:46;9.80;;;7.00;;
34902;SDS011;21114;44.840;0.214;2024-02-21T02:54:12;8.65;;;6.97;;
34902;SDS011;21114;44.840;0.214;2024-02-21T02:56:38;12.15;;;6.68;;
34902;SDS011;21114;44.840;0.214;2024-02-21T02:59:04;11.80;;;6.60;;
34902;SDS011;21114;44.840;0.214;2024-02-21T03:01:33;9.25;;;7.22;;
34902;SDS011;21114;44.840;0.214;2024-02-21T03:04:47;8.65;;;5.70;;
34902;SDS011;21114;44.840;0.214;2024-02-21T03:07:14;12.43;;;6.32;;
34902;SDS011;21114;44.840;0.214;2024-02-21T03:10:32;12.35;;;6.95;;
34902;SDS011;21114;44.840;0.214;2024-02-21T03:12:58;9.23;;;6.82;;
34902;SDS011;21114;44.840;0.214;2024-02-21T03:15:24;11.80;;;7.28;;
34902;SDS011;21114;44.840;0.214;2024-02-21T03:17:50;9.35;;;6.07;;
34902;SDS011;21114;44.840;0.214;2024-02-21T03:20:16;11.82;;;7.10;;
34902;SDS011;21114;44.840;0.214;2024-02-21T03:22:42;12.93;;;6.97;;
34902;SDS011;21114;44.840;0.214;2024-02-21T03:25:08;12.32;;;7.57;;
34902;SDS011;21114;44.840;0.214;2024-02-21T03:27:35;10.50;;;7.00;;
34902;SDS011;21114;44.840;0.214;2024-02-21T03:30:01;12.63;;;6.97;;
34902;SDS011;21114;44.840;0.214;2024-02-21T03:32:29;9.20;;;6.13;;
34902;SDS011;21114;44.840;0.214;2024-02-21T03:34:55;10.13;;;6.63;;
34902;SDS011;21114;44.840;0.214;2024-02-21T03:37:21;11.23;;;6.75;;
34902;SDS011;21114;44.840;0.214;2024-02-21T03:39:47;10.43;;;7.03;;
34902;SDS011;21114;44.840;0.214;2024-02-21T03:42:13;16.95;;;8.15;;
34902;SDS011;21114;44.840;0.214;2024-02-21T03:44:39;9.50;;;6.63;;
34902;SDS011;21114;44.840;0.214;2024-02-21T03:47:05;8.35;;;5.63;;
34902;SDS011;21114;44.840;0.214;2024-02-21T03:49:35;10.35;;;6.93;;
34902;SDS011;21114;44.840;0.214;2024-02-21T03:52:01;10.90;;;7.45;;
34902;SDS011;21114;44.840;0.214;2024-02-21T03:54:27;9.43;;;6.78;;
34902;SDS011;21114;44.840;0.214;2024-02-21T03:56:53;10.05;;;6.85;;
34902;SDS011;21114;44.840;0.214;2024-02-21T03:59:19;7.07;;;6.38;;
34902;SDS011;21114;44.840;0.214;2024-02-21T04:01:45;9.13;;;6.07;;
34902;SDS011;21114;44.840;0.214;2024-02-21T04:04:12;9.80;;;6.40;;
34902;SDS011;21114;44.840;0.214;2024-02-21T04:06:45;10.85;;;7.50;;
34902;SDS011;21114;44.840;0.214;2024-02-21T04:10:00;8.23;;;5.30;;
34902;SDS011;21114;44.840;0.214;2024-02-21T04:12:26;8.13;;;6.88;;
34902;SDS011;21114;44.840;0.214;2024-02-21T04:14:52;12.05;;;7.03;;
34902;SDS011;21114;44.840;0.214;2024-02-21T04:17:18;7.60;;;6.07;;
34902;SDS011;21114;44.840;0.214;2024-02-21T04:19:44;8.55;;;6.13;;
34902;SDS011;21114;44.840;0.214;2024-02-21T04:22:10;10.23;;;6.95;;
34902;SDS011;21114;44.840;0.214;2024-02-21T04:24:36;9.43;;;5.85;;
34902;SDS011;21114;44.840;0.214;2024-02-21T04:27:02;7.10;;;5.05;;
34902;SDS011;21114;44.840;0.214;2024-02-21T04:29:28;6.75;;;5.28;;
34902;SDS011;21114;44.840;0.214;2024-02-21T04:31:54;8.52;;;5.50;;
34902;SDS011;21114;44.840;0.214;2024-02-21T04:34:20;9.35;;;5.53;;
34902;SDS011;21114;44.840;0.214;2024-02-21T04:36:46;7.63;;;5.32;;
34902;SDS011;21114;44.840;0.214;2024-02-21T04:39:12;8.38;;;5.70;;
34902;SDS011;21114;44.840;0.214;2024-02-21T04:41:38;8.55;;;5.35;;
34902;SDS011;21114;44.840;0.214;2024-02-21T04:44:04;8.80;;;5.57;;
34902;SDS011;21114;44.840;0.214;2024-02-21T04:46:30;11.63;;;5.70;;
34902;SDS011;21114;44.840;0.214;2024-02-21T04:48:56;9.55;;;5.65;;
34902;SDS011;21114;44.840;0.214;2024-02-21T04:51:22;10.30;;;5.93;;
34902;SDS011;21114;44.840;0.214;2024-02-21T04:53:48;6.38;;;5.70;;
34902;SDS011;21114;44.840;0.214;2024-02-21T04:56:14;8.65;;;5.13;;
34902;SDS011;21114;44.840;0.214;2024-02-21T04:58:41;8.38;;;5.75;;
34902;SDS011;21114;44.840;0.214;2024-02-21T05:01:07;9.25;;;7.45;;
34902;SDS011;21114;44.840;0.214;2024-02-21T05:03:33;9.82;;;5.20;;
34902;SDS011;21114;44.840;0.214;2024-02-21T05:05:59;10.15;;;6.18;;
34902;SDS011;21114;44.840;0.214;2024-02-21T05:08:26;6.15;;;4.95;;
34902;SDS011;21114;44.840;0.214;2024-02-21T05:10:52;9.07;;;5.80;;
34902;SDS011;21114;44.840;0.214;2024-02-21T05:13:18;6.75;;;5.97;;
34902;SDS011;21114;44.840;0.214;2024-02-21T05:15:45;9.38;;;7.88;;
34902;SDS011;21114;44.840;0.214;2024-02-21T05:18:11;9.32;;;6.47;;
34902;SDS011;21114;44.840;0.214;2024-02-21T05:20:37;10.52;;;6.35;;
34902;SDS011;21114;44.840;0.214;2024-02-21T05:23:03;9.02;;;6.40;;
34902;SDS011;21114;44.840;0.214;2024-02-21T05:25:29;9.13;;;4.95;;
34902;SDS011;21114;44.840;0.214;2024-02-21T05:27:55;9.00;;;5.68;;
34902;SDS011;21114;44.840;0.214;2024-02-21T05:30:26;8.70;;;5.93;;
34902;SDS011;21114;44.840;0.214;2024-02-21T05:32:52;13.40;;;6.22;;
34902;SDS011;21114;44.840;0.214;2024-02-21T05:35:18;15.00;;;13.68;;
34902;SDS011;21114;44.840;0.214;2024-02-21T05:37:46;9.43;;;7.30;;
34902;SDS011;21114;44.840;0.214;2024-02-21T05:40:17;9.70;;;5.72;;
34902;SDS011;21114;44.840;0.214;2024-02-21T05:42:43;6.95;;;5.90;;
34902;SDS011;21114;44.840;0.214;2024-02-21T05:45:09;7.63;;;5.30;;
34902;SDS011;21114;44.840;0.214;2024-02-21T05:47:35;9.45;;;5.93;;
34902;SDS011;21114;44.840;0.214;2024-02-21T05:50:01;10.35;;;6.40;;
34902;SDS011;21114;44.840;0.214;2024-02-21T05:52:27;11.10;;;6.47;;
34902;SDS011;21114;44.840;0.214;2024-02-21T05:54:53;8.25;;;5.40;;
34902;SDS011;21114;44.840;0.214;2024-02-21T05:57:20;10.45;;;6.65;;
34902;SDS011;21114;44.840;0.214;2024-02-21T05:59:46;9.02;;;5.35;;
34902;SDS011;21114;44.840;0.214;2024-02-21T06:02:12;6.95;;;5.50;;
34902;SDS011;21114;44.840;0.214;2024-02-21T06:04:38;8.57;;;5.95;;
34902;SDS011;21114;44.840;0.214;2024-02-21T06:07:04;8.25;;;5.63;;
34902;SDS011;21114;44.840;0.214;2024-02-21T06:09:30;11.65;;;5.78;;
34902;SDS011;21114;44.840;0.214;2024-02-21T06:11:57;10.55;;;6.07;;
34902;SDS011;21114;44.840;0.214;2024-02-21T06:14:23;8.13;;;5.15;;
34902;SDS011;21114;44.840;0.214;2024-02-21T06:16:49;14.85;;;7.05;;
34902;SDS011;21114;44.840;0.214;2024-02-21T06:19:15;6.90;;;5.30;;
34902;SDS011;21114;44.840;0.214;2024-02-21T06:21:41;7.30;;;5.45;;
34902;SDS011;21114;44.840;0.214;2024-02-21T06:24:07;8.95;;;5.30;;
34902;SDS011;21114;44.840;0.214;2024-02-21T06:26:33;6.40;;;4.78;;
34902;SDS011;21114;44.840;0.214;2024-02-21T06:28:59;7.25;;;5.03;;
34902;SDS011;21114;44.840;0.214;2024-02-21T06:31:26;6.00;;;4.53;;
34902;SDS011;21114;44.840;0.214;2024-02-21T06:33:53;7.93;;;5.75;;
34902;SDS011;21114;44.840;0.214;2024-02-21T06:36:19;7.25;;;4.43;;
34902;SDS011;21114;44.840;0.214;2024-02-21T06:38:45;8.75;;;4.93;;
34902;SDS011;21114;44.840;0.214;2024-02-21T06:41:17;8.02;;;4.38;;
34902;SDS011;21114;44.840;0.214;2024-02-21T06:43:44;11.02;;;6.78;;
34902;SDS011;21114;44.840;0.214;2024-02-21T06:47:05;12.38;;;5.70;;
34902;SDS011;21114;44.840;0.214;2024-02-21T06:49:31;7.75;;;5.47;;
34902;SDS011;21114;44.840;0.214;2024-02-21T06:51:57;9.80;;;5.93;;
34902;SDS011;21114;44.840;0.214;2024-02-21T06:54:23;8.20;;;6.50;;
34902;SDS011;21114;44.840;0.214;2024-02-21T06:56:49;8.63;;;5.25;;
34902;SDS011;21114;44.840;0.214;2024-02-21T06:59:15;9.60;;;6.72;;
34902;SDS011;21114;44.840;0.214;2024-02-21T07:01:45;8.50;;;5.53;;
34902;SDS011;21114;44.840;0.214;2024-02-21T07:05:03;6.68;;;5.72;;
34902;SDS011;21114;44.840;0.214;2024-02-21T07:07:30;9.63;;;6.65;;
34902;SDS011;21114;44.840;0.214;2024-02-21T07:09:56;14.07;;;6.53;;
34902;SDS011;21114;44.840;0.214;2024-02-21T07:12:23;8.90;;;6.15;;
34902;SDS011;21114;44.840;0.214;2024-02-21T07:14:49;8.65;;;6.97;;
34902;SDS011;21114;44.840;0.214;2024-02-21T07:17:15;6.25;;;5.65;;
34902;SDS011;21114;44.840;0.214;2024-02-21T07:19:41;13.95;;;7.45;;
34902;SDS011;21114;44.840;0.214;2024-02-21T07:22:07;8.07;;;5.70;;
34902;SDS011;21114;44.840;0.214;2024-02-21T07:24:34;9.23;;;6.35;;
34902;SDS011;21114;44.840;0.214;2024-02-21T07:27:00;8.82;;;5.55;;
34902;SDS011;21114;44.840;0.214;2024-02-21T07:29:29;6.88;;;5.10;;
34902;SDS011;21114;44.840;0.214;2024-02-21T07:31:55;8.23;;;5.15;;
34902;SDS011;21114;44.840;0.214;2024-02-21T07:34:21;7.45;;;4.85;;
34902;SDS011;21114;44.840;0.214;2024-02-21T07:36:48;7.88;;;4.60;;
34902;SDS011;21114;44.840;0.214;2024-02-21T07:39:14;9.40;;;5.45;;
34902;SDS011;21114;44.840;0.214;2024-02-21T07:41:40;8.27;;;6.22;;
34902;SDS011;21114;44.840;0.214;2024-02-21T07:44:08;13.52;;;8.73;;
34902;SDS011;21114;44.840;0.214;2024-02-21T07:46:34;9.57;;;6.32;;
34902;SDS011;21114;44.840;0.214;2024-02-21T07:49:00;9.43;;;6.97;;
34902;SDS011;21114;44.840;0.214;2024-02-21T07:51:27;8.40;;;6.43;;
34902;SDS011;21114;44.840;0.214;2024-02-21T07:53:53;14.15;;;6.07;;
34902;SDS011;21114;44.840;0.214;2024-02-21T07:56:20;11.70;;;5.97;;
34902;SDS011;21114;44.840;0.214;2024-02-21T07:58:46;12.40;;;7.30;;
34902;SDS011;21114;44.840;0.214;2024-02-21T08:01:18;9.85;;;8.60;;
34902;SDS011;21114;44.840;0.214;2024-02-21T08:04:32;7.25;;;6.53;;
34902;SDS011;21114;44.840;0.214;2024-02-21T08:06:58;8.20;;;5.80;;
34902;SDS011;21114;44.840;0.214;2024-02-21T08:09:29;17.83;;;6.40;;
34902;SDS011;21114;44.840;0.214;2024-02-21T08:11:55;10.77;;;6.57;;
34902;SDS011;21114;44.840;0.214;2024-02-21T08:14:21;9.85;;;6.65;;
34902;SDS011;21114;44.840;0.214;2024-02-21T08:16:49;10.45;;;5.70;;
34902;SDS011;21114;44.840;0.214;2024-02-21T08:19:15;10.45;;;6.68;;
34902;SDS011;21114;44.840;0.214;2024-02-21T08:21:42;10.30;;;6.70;;
34902;SDS011;21114;44.840;0.214;2024-02-21T08:24:08;11.38;;;6.32;;
34902;SDS011;21114;44.840;0.214;2024-02-21T08:26:34;8.95;;;5.90;;
34902;SDS011;21114;44.840;0.214;2024-02-21T08:29:01;13.27;;;6.57;;
34902;SDS011;21114;44.840;0.214;2024-02-21T08:31:27;12.88;;;6.15;;
34902;SDS011;21114;44.840;0.214;2024-02-21T08:33:57;9.30;;;5.65;;
34902;SDS011;21114;44.840;0.214;2024-02-21T08:37:05;9.65;;;6.57;;
34902;SDS011;21114;44.840;0.214;2024-02-21T08:39:32;11.32;;;8.38;;
34902;SDS011;21114;44.840;0.214;2024-02-21T08:41:58;9.85;;;8.05;;
34902;SDS011;21114;44.840;0.214;2024-02-21T08:44:27;11.45;;;8.93;;
34902;SDS011;21114;44.840;0.214;2024-02-21T08:47:42;14.38;;;9.55;;
34902;SDS011;21114;44.840;0.214;2024-02-21T08:50:08;11.10;;;8.23;;
34902;SDS011;21114;44.840;0.214;2024-02-21T08:52:37;11.38;;;8.10;;
34902;SDS011;21114;44.840;0.214;2024-02-21T08:55:03;9.20;;;7.47;;
34902;SDS011;21114;44.840;0.214;2024-02-21T08:58:18;11.60;;;6.22;;
34902;SDS011;21114;44.840;0.214;2024-02-21T09:00:44;12.07;;;6.22;;
34902;SDS011;21114;44.840;0.214;2024-02-21T09:03:10;11.00;;;6.32;;
34902;SDS011;21114;44.840;0.214;2024-02-21T09:05:36;9.35;;;8.02;;
34902;SDS011;21114;44.840;0.214;2024-02-21T09:08:02;10.43;;;7.80;;
34902;SDS011;21114;44.840;0.214;2024-02-21T09:10:29;12.85;;;8.07;;
34902;SDS011;21114;44.840;0.214;2024-02-21T09:12:56;9.35;;;7.22;;
34902;SDS011;21114;44.840;0.214;2024-02-21T09:15:22;7.85;;;6.03;;
34902;SDS011;21114;44.840;0.214;2024-02-21T09:17:49;8.13;;;5.85;;
34902;SDS011;21114;44.840;0.214;2024-02-21T09:20:15;8.75;;;6.88;;
34902;SDS011;21114;44.840;0.214;2024-02-21T09:22:41;12.93;;;6.60;;
34902;SDS011;21114;44.840;0.214;2024-02-21T09:25:07;10.40;;;5.63;;
34902;SDS011;21114;44.840;0.214;2024-02-21T09:27:36;9.23;;;6.57;;
34902;SDS011;21114;44.840;0.214;2024-02-21T09:30:02;10.00;;;6.88;;
34902;SDS011;21114;44.840;0.214;2024-02-21T09:32:29;8.57;;;6.05;;
34902;SDS011;21114;44.840;0.214;2024-02-21T09:34:55;8.18;;;5.78;;
34902;SDS011;21114;44.840;0.214;2024-02-21T09:37:21;8.23;;;6.80;;
34902;SDS011;21114;44.840;0.214;2024-02-21T09:39:47;8.38;;;5.93;;
34902;SDS011;21114;44.840;0.214;2024-02-21T09:42:15;9.40;;;5.85;;
34902;SDS011;21114;44.840;0.214;2024-02-21T09:45:32;10.43;;;6.45;;
34902;SDS011;21114;44.840;0.214;2024-02-21T09:52:06;9.85;;;7.05;;
34902;SDS011;21114;44.840;0.214;2024-02-21T09:54:33;8.40;;;6.00;;
34902;SDS011;21114;44.840;0.214;2024-02-21T09:57:48;7.38;;;5.57;;
34902;SDS011;21114;44.840;0.214;2024-02-21T10:01:04;10.48;;;6.72;;
34902;SDS011;21114;44.840;0.214;2024-02-21T10:03:31;9.10;;;6.65;;
34902;SDS011;21114;44.840;0.214;2024-02-21T10:05:58;9.45;;;6.63;;
34902;SDS011;21114;44.840;0.214;2024-02-21T10:12:36;7.90;;;6.05;;
34902;SDS011;21114;44.840;0.214;2024-02-21T10:15:06;9.75;;;6.80;;
34902;SDS011;21114;44.840;0.214;2024-02-21T10:18:20;7.72;;;4.63;;
34902;SDS011;21114;44.840;0.214;2024-02-21T10:20:46;14.43;;;6.95;;
34902;SDS011;21114;44.840;0.214;2024-02-21T10:23:12;9.25;;;5.57;;
34902;SDS011;21114;44.840;0.214;2024-02-21T10:25:38;7.88;;;6.78;;
34902;SDS011;21114;44.840;0.214;2024-02-21T10:28:12;7.77;;;5.63;;
34902;SDS011;21114;44.840;0.214;2024-02-21T10:31:27;7.93;;;5.85;;
34902;SDS011;21114;44.840;0.214;2024-02-21T10:34:42;8.32;;;5.78;;
34902;SDS011;21114;44.840;0.214;2024-02-21T10:37:11;10.13;;;6.30;;
34902;SDS011;21114;44.840;0.214;2024-02-21T10:40:27;8.57;;;5.90;;
34902;SDS011;21114;44.840;0.214;2024-02-21T10:43:41;7.38;;;4.93;;
34902;SDS011;21114;44.840;0.214;2024-02-21T10:46:58;9.40;;;6.35;;
34902;SDS011;21114;44.840;0.214;2024-02-21T10:49:25;10.02;;;5.57;;
34902;SDS011;21114;44.840;0.214;2024-02-21T10:55:46;6.78;;;3.83;;
34902;SDS011;21114;44.840;0.214;2024-02-21T10:59:04;5.93;;;2.90;;
34902;SDS011;21114;44.840;0.214;2024-02-21T11:02:19;6.00;;;2.50;;
34902;SDS011;21114;44.840;0.214;2024-02-21T11:04:45;7.50;;;3.08;;
34902;SDS011;21114;44.840;0.214;2024-02-21T11:08:00;7.10;;;3.30;;
34902;SDS011;21114;44.840;0.214;2024-02-21T11:10:27;4.25;;;2.67;;
34902;SDS011;21114;44.840;0.214;2024-02-21T11:13:18;4.75;;;2.70;;
34902;SDS011;21114;44.840;0.214;2024-02-21T11:16:34;6.78;;;2.38;;
34902;SDS011;21114;44.840;0.214;2024-02-21T11:19:51;7.22;;;3.00;;
34902;SDS011;21114;44.840;0.214;2024-02-21T11:22:18;4.07;;;2.85;;
34902;SDS011;21114;44.840;0.214;2024-02-21T11:25:32;6.68;;;2.75;;
34902;SDS011;21114;44.840;0.214;2024-02-21T11:31:16;6.32;;;3.88;;
34902;SDS011;21114;44.840;0.214;2024-02-21T11:33:43;7.32;;;2.85;;
34902;SDS011;21114;44.840;0.214;2024-02-21T11:37:01;6.72;;;2.85;;
34902;SDS011;21114;44.840;0.214;2024-02-21T11:40:15;7.82;;;3.40;;
34902;SDS011;21114;44.840;0.214;2024-02-21T11:43:30;4.00;;;2.67;;
34902;SDS011;21114;44.840;0.214;2024-02-21T11:46:44;6.70;;;3.33;;
34902;SDS011;21114;44.840;0.214;2024-02-21T11:49:59;6.20;;;3.72;;
34902;SDS011;21114;44.840;0.214;2024-02-21T11:52:25;6.20;;;3.17;;
34902;SDS011;21114;44.840;0.214;2024-02-21T11:55:39;6.03;;;3.33;;
34902;SDS011;21114;44.840;0.214;2024-02-21T11:58:54;5.50;;;3.65;;
34902;SDS011;21114;44.840;0.214;2024-02-21T12:02:11;5.35;;;3.50;;
34902;SDS011;21114;44.840;0.214;2024-02-21T12:05:08;7.60;;;2.63;;
34902;SDS011;21114;44.840;0.214;2024-02-21T12:08:24;4.85;;;3.13;;
34902;SDS011;21114;44.840;0.214;2024-02-21T12:11:38;4.05;;;2.35;;
34902;SDS011;21114;44.840;0.214;2024-02-21T12:14:04;4.95;;;2.67;;
34902;SDS011;21114;44.840;0.214;2024-02-21T12:17:19;4.53;;;3.17;;
34902;SDS011;21114;44.840;0.214;2024-02-21T12:19:45;3.03;;;2.15;;
34902;SDS011;21114;44.840;0.214;2024-02-21T12:22:16;5.80;;;2.97;;
34902;SDS011;21114;44.840;0.214;2024-02-21T12:25:30;5.03;;;2.58;;
34902;SDS011;21114;44.840;0.214;2024-02-21T12:27:56;9.00;;;3.63;;
34902;SDS011;21114;44.840;0.214;2024-02-21T12:31:11;4.63;;;2.40;;
34902;SDS011;21114;44.840;0.214;2024-02-21T12:34:25;3.30;;;2.55;;
34902;SDS011;21114;44.840;0.214;2024-02-21T12:37:40;7.47;;;3.30;;
34902;SDS011;21114;44.840;0.214;2024-02-21T12:40:06;6.07;;;3.58;;
34902;SDS011;21114;44.840;0.214;2024-02-21T12:43:22;5.70;;;2.53;;
34902;SDS011;21114;44.840;0.214;2024-02-21T12:46:37;4.35;;;2.95;;
34902;SDS011;21114;44.840;0.214;2024-02-21T12:49:04;5.57;;;4.25;;
34902;SDS011;21114;44.840;0.214;2024-02-21T12:52:19;3.78;;;2.60;;
34902;SDS011;21114;44.840;0.214;2024-02-21T12:55:33;3.42;;;2.15;;
34902;SDS011;21114;44.840;0.214;2024-02-21T12:58:00;5.35;;;2.22;;
34902;SDS011;21114;44.840;0.214;2024-02-21T13:01:17;4.22;;;1.88;;
34902;SDS011;21114;44.840;0.214;2024-02-21T13:04:31;7.20;;;2.60;;
34902;SDS011;21114;44.840;0.214;2024-02-21T13:07:46;4.00;;;2.50;;
34902;SDS011;21114;44.840;0.214;2024-02-21T13:10:13;4.15;;;2.00;;
34902;SDS011;21114;44.840;0.214;2024-02-21T13:12:39;3.35;;;3.00;;
34902;SDS011;21114;44.840;0.214;2024-02-21T13:15:54;3.95;;;2.65;;
34902;SDS011;21114;44.840;0.214;2024-02-21T13:18:20;3.22;;;2.38;;
34902;SDS011;21114;44.840;0.214;2024-02-21T13:20:47;2.92;;;2.08;;
34902;SDS011;21114;44.840;0.214;2024-02-21T13:24:01;4.45;;;2.05;;
34902;SDS011;21114;44.840;0.214;2024-02-21T13:27:16;4.25;;;2.00;;
34902;SDS011;21114;44.840;0.214;2024-02-21T13:29:42;7.13;;;2.83;;
34902;SDS011;21114;44.840;0.214;2024-02-21T13:32:08;2.63;;;1.85;;
34902;SDS011;21114;44.840;0.214;2024-02-21T13:34:34;4.47;;;2.20;;
34902;SDS011;21114;44.840;0.214;2024-02-21T13:37:00;8.55;;;2.35;;
34902;SDS011;21114;44.840;0.214;2024-02-21T13:39:26;3.65;;;2.00;;
34902;SDS011;21114;44.840;0.214;2024-02-21T13:41:52;3.70;;;2.10;;
34902;SDS011;21114;44.840;0.214;2024-02-21T13:44:18;3.63;;;2.22;;
34902;SDS011;21114;44.840;0.214;2024-02-21T13:46:44;5.40;;;2.42;;
34902;SDS011;21114;44.840;0.214;2024-02-21T13:49:10;3.88;;;2.38;;
34902;SDS011;21114;44.840;0.214;2024-02-21T13:51:36;4.45;;;2.10;;
34902;SDS011;21114;44.840;0.214;2024-02-21T13:54:03;5.72;;;2.58;;
34902;SDS011;21114;44.840;0.214;2024-02-21T13:57:17;4.85;;;2.65;;
34902;SDS011;21114;44.840;0.214;2024-02-21T13:59:43;2.33;;;1.90;;
34902;SDS011;21114;44.840;0.214;2024-02-21T14:02:09;5.25;;;2.80;;
34902;SDS011;21114;44.840;0.214;2024-02-21T14:05:24;5.65;;;2.35;;
34902;SDS011;21114;44.840;0.214;2024-02-21T14:08:14;3.75;;;2.20;;
34902;SDS011;21114;44.840;0.214;2024-02-21T14:11:29;6.18;;;2.53;;
34902;SDS011;21114;44.840;0.214;2024-02-21T14:14:45;9.00;;;2.67;;
34902;SDS011;21114;44.840;0.214;2024-02-21T14:18:01;4.70;;;2.05;;
34902;SDS011;21114;44.840;0.214;2024-02-21T14:20:30;3.63;;;2.47;;
34902;SDS011;21114;44.840;0.214;2024-02-21T14:22:57;2.75;;;1.92;;
34902;SDS011;21114;44.840;0.214;2024-02-21T14:25:23;3.78;;;2.47;;
34902;SDS011;21114;44.840;0.214;2024-02-21T14:27:49;5.35;;;3.15;;
34902;SDS011;21114;44.840;0.214;2024-02-21T14:31:03;8.45;;;2.28;;
34902;SDS011;21114;44.840;0.214;2024-02-21T14:33:32;6.32;;;2.38;;
34902;SDS011;21114;44.840;0.214;2024-02-21T14:35:58;6.40;;;2.65;;
34902;SDS011;21114;44.840;0.214;2024-02-21T14:39:16;5.57;;;2.72;;
34902;SDS011;21114;44.840;0.214;2024-02-21T14:42:30;4.18;;;2.08;;
34902;SDS011;21114;44.840;0.214;2024-02-21T14:44:57;3.88;;;2.55;;
34902;SDS011;21114;44.840;0.214;2024-02-21T14:47:29;3.50;;;2.30;;
34902;SDS011;21114;44.840;0.214;2024-02-21T14:50:16;4.78;;;2.28;;
34902;SDS011;21114;44.840;0.214;2024-02-21T14:52:42;6.72;;;2.95;;
34902;SDS011;21114;44.840;0.214;2024-02-21T14:55:09;6.63;;;3.17;;
34902;SDS011;21114;44.840;0.214;2024-02-21T14:57:37;6.45;;;2.70;;
34902;SDS011;21114;44.840;0.214;2024-02-21T15:00:05;3.38;;;2.70;;
34902;SDS011;21114;44.840;0.214;2024-02-21T15:03:20;4.22;;;2.45;;
34902;SDS011;21114;44.840;0.214;2024-02-21T15:06:15;5.45;;;2.90;;
34902;SDS011;21114;44.840;0.214;2024-02-21T15:08:41;6.13;;;3.47;;
34902;SDS011;21114;44.840;0.214;2024-02-21T15:11:08;8.50;;;2.80;;
34902;SDS011;21114;44.840;0.214;2024-02-21T15:13:34;6.13;;;2.70;;
34902;SDS011;21114;44.840;0.214;2024-02-21T15:16:49;3.33;;;2.28;;
34902;SDS011;21114;44.840;0.214;2024-02-21T15:20:03;4.53;;;2.70;;
34902;SDS011;21114;44.840;0.214;2024-02-21T15:23:18;6.82;;;3.10;;
34902;SDS011;21114;44.840;0.214;2024-02-21T15:26:12;5.97;;;4.15;;
34902;SDS011;21114;44.840;0.214;2024-02-21T15:28:40;6.88;;;2.92;;
34902;SDS011;21114;44.840;0.214;2024-02-21T15:31:06;4.05;;;2.90;;
34902;SDS011;21114;44.840;0.214;2024-02-21T15:33:32;3.65;;;3.05;;
34902;SDS011;21114;44.840;0.214;2024-02-21T15:35:58;3.60;;;2.38;;
34902;SDS011;21114;44.840;0.214;2024-02-21T15:38:24;6.47;;;3.17;;
34902;SDS011;21114;44.840;0.214;2024-02-21T15:41:38;4.60;;;2.67;;
34902;SDS011;21114;44.840;0.214;2024-02-21T15:44:53;6.80;;;3.40;;
34902;SDS011;21114;44.840;0.214;2024-02-21T15:47:20;5.20;;;3.47;;
34902;SDS011;21114;44.840;0.214;2024-02-21T15:53:10;4.75;;;2.97;;
34902;SDS011;21114;44.840;0.214;2024-02-21T15:55:36;7.75;;;3.60;;
34902;SDS011;21114;44.840;0.214;2024-02-21T15:58:51;6.05;;;3.50;;